Terminal Aerodrome Forecast
Issued by NWS

Home | Current Version | Previous Version | Text Only | Print | Product List | Glossary On
Versions: 1 2 3 4 5 6 7 8 9 10 11 12 13 14 15 16 17 18 19 20
000
FTUS45 KBOU 240528
TAFAPA
TAF
KAPA 240528Z 2406/2506 36009KT P6SM VCSH SCT050 BKN080
     FM240900 13007KT P6SM SCT050 BKN080
     FM241200 18007KT P6SM FEW090 SCT150
     FM241900 02011KT P6SM SCT090 SCT150=

USA.gov is the U.S. government's official web portal to all federal, state and local government web resources and services.